createdAt,value
2022-09-16T00:00:54.809Z,75.85
2022-09-16T00:03:22.286Z,77.31
2022-09-16T00:05:52.526Z,75.72
2022-09-16T00:08:21.204Z,74.64
2022-09-16T00:10:47.870Z,74.09
2022-09-16T00:13:14.779Z,74.26
2022-09-16T00:15:49.061Z,73.55
2022-09-16T00:18:15.747Z,74.42
2022-09-16T00:20:48.878Z,73.19
2022-09-16T00:23:15.987Z,73.27
2022-09-16T00:25:42.708Z,73.78
2022-09-16T00:28:10.245Z,74.08
2022-09-16T00:30:37.600Z,75.79
2022-09-16T00:33:06.468Z,73.32
2022-09-16T00:35:33.204Z,74.34
2022-09-16T00:37:59.910Z,73.13
2022-09-16T00:40:26.624Z,74.26
2022-09-16T00:42:53.359Z,73.78
2022-09-16T00:45:28.365Z,73.16
2022-09-16T00:48:04.130Z,73.26
2022-09-16T00:50:38.822Z,72.78
2022-09-16T00:53:12.966Z,72.69
2022-09-16T00:55:40.640Z,72.49
2022-09-16T00:58:24.533Z,72.79
2022-09-16T01:00:52.175Z,73.00
2022-09-16T01:03:20.785Z,72.98
2022-09-16T01:05:49.650Z,73.07
2022-09-16T01:08:18.141Z,73.11
2022-09-16T01:10:44.881Z,73.32
2022-09-16T01:13:15.584Z,74.18
2022-09-16T01:15:49.862Z,73.43
2022-09-16T01:18:38.757Z,75.43
2022-09-16T01:21:27.332Z,74.10
2022-09-16T01:24:12.002Z,74.10
2022-09-16T01:27:12.832Z,74.18
2022-09-16T01:30:14.007Z,74.31
2022-09-16T01:33:14.029Z,74.59
2022-09-16T01:35:57.720Z,75.05
2022-09-16T01:38:59.732Z,75.12
2022-09-16T01:41:57.164Z,75.35
2022-09-16T01:44:41.754Z,75.29
2022-09-16T01:47:30.399Z,78.06
2022-09-16T01:50:28.539Z,75.88
2022-09-16T01:53:13.604Z,76.68
2022-09-16T01:55:52.818Z,76.48
2022-09-16T01:58:33.210Z,76.27
2022-09-16T02:01:11.475Z,76.44
2022-09-16T02:03:46.444Z,75.95
2022-09-16T02:06:23.516Z,77.13
2022-09-16T02:08:57.480Z,76.82
2022-09-16T02:11:25.450Z,76.54
2022-09-16T02:14:03.554Z,76.77
2022-09-16T02:16:44.115Z,77.06
2022-09-16T02:19:24.796Z,76.69
2022-09-16T02:22:00.166Z,76.55
2022-09-16T02:24:31.215Z,76.78
2022-09-16T02:27:04.192Z,76.16
2022-09-16T02:29:45.920Z,76.21
2022-09-16T02:32:15.674Z,76.26
2022-09-16T02:34:51.304Z,76.78
2022-09-16T02:37:59.754Z,76.85
2022-09-16T02:40:46.415Z,76.33
2022-09-16T02:43:13.268Z,76.28
2022-09-16T02:45:48.897Z,76.84
2022-09-16T02:49:05.815Z,76.43
2022-09-16T02:51:56.466Z,77.02
2022-09-16T02:55:04.996Z,76.78
2022-09-16T02:57:32.453Z,77.11
2022-09-16T02:59:59.200Z,77.42
2022-09-16T03:02:37.148Z,76.97
2022-09-16T03:05:04.788Z,77.11
2022-09-16T03:07:32.364Z,77.37
2022-09-16T03:09:59.174Z,77.69
2022-09-16T03:12:50.377Z,77.68
2022-09-16T03:15:41.793Z,78.02
2022-09-16T03:18:30.155Z,77.85
2022-09-16T03:21:38.668Z,78.68
2022-09-16T03:24:39.456Z,78.19
2022-09-16T03:27:20.769Z,80.23
2022-09-16T03:30:01.496Z,77.36
2022-09-16T03:32:41.497Z,78.37
2022-09-16T03:35:11.063Z,78.93
2022-09-16T03:37:41.061Z,76.78
2022-09-16T03:40:15.622Z,76.74
2022-09-16T03:42:44.863Z,76.68
2022-09-16T03:45:18.476Z,77.79
2022-09-16T03:47:48.414Z,78.75
2022-09-16T03:50:16.737Z,79.66
2022-09-16T03:52:43.315Z,77.02
2022-09-16T03:55:11.111Z,76.90
2022-09-16T03:57:40.401Z,78.79
2022-09-16T04:00:08.764Z,78.49
2022-09-16T04:02:36.417Z,78.67
2022-09-16T04:05:03.832Z,78.38
2022-09-16T04:07:33.596Z,78.94
2022-09-16T04:10:01.369Z,79.70
2022-09-16T04:12:29.569Z,79.75
2022-09-16T04:14:56.232Z,79.81
2022-09-16T04:17:23.734Z,79.59
2022-09-16T04:19:51.132Z,78.14
2022-09-16T04:22:17.721Z,79.41
2022-09-16T04:24:44.472Z,80.20
2022-09-16T04:27:11.225Z,79.50
2022-09-16T04:29:37.885Z,79.54
2022-09-16T04:32:05.109Z,80.07
2022-09-16T04:34:32.515Z,77.99
2022-09-16T04:36:59.542Z,77.90
2022-09-16T04:39:26.145Z,77.80
2022-09-16T04:41:53.064Z,78.05
2022-09-16T04:44:19.766Z,80.26
2022-09-16T04:46:46.580Z,77.28
2022-09-16T04:49:13.232Z,76.70
2022-09-16T04:51:40.030Z,78.13
2022-09-16T04:54:06.705Z,79.84
2022-09-16T04:56:33.466Z,78.83
2022-09-16T04:59:05.824Z,78.29
2022-09-16T05:01:46.127Z,79.18
2022-09-16T05:04:12.839Z,80.04
2022-09-16T05:06:42.216Z,79.91
2022-09-16T05:09:12.508Z,77.04
2022-09-16T05:11:41.003Z,79.59
2022-09-16T05:14:14.714Z,77.92
2022-09-16T05:16:42.446Z,77.45
2022-09-16T05:19:13.148Z,78.07
2022-09-16T05:21:41.008Z,76.56
2022-09-16T05:24:11.339Z,76.44
2022-09-16T05:26:42.041Z,76.75
2022-09-16T05:29:19.737Z,77.06
2022-09-16T05:31:49.577Z,77.66
2022-09-16T05:34:23.151Z,76.68
2022-09-16T05:36:50.704Z,78.46
2022-09-16T05:39:26.258Z,76.96
2022-09-16T05:41:59.306Z,77.32
2022-09-16T05:44:28.054Z,77.78
2022-09-16T05:46:56.032Z,77.33
2022-09-16T05:49:23.793Z,77.66
2022-09-16T05:51:53.784Z,77.42
2022-09-16T05:54:25.247Z,77.28
2022-09-16T05:56:54.896Z,77.48
2022-09-16T05:59:24.072Z,77.77
2022-09-16T06:01:51.509Z,77.87
2022-09-16T06:04:18.165Z,76.45
2022-09-16T06:06:47.003Z,77.31
2022-09-16T06:09:21.798Z,77.26
2022-09-16T06:11:51.997Z,76.73
2022-09-16T06:14:20.753Z,76.29
2022-09-16T06:16:47.545Z,77.69
2022-09-16T06:19:18.956Z,76.53
2022-09-16T06:21:46.970Z,76.36
2022-09-16T06:24:17.004Z,76.36
2022-09-16T06:26:47.408Z,76.38
2022-09-16T06:29:15.455Z,76.28
2022-09-16T06:31:42.829Z,75.70
2022-09-16T06:34:15.548Z,76.40
2022-09-16T06:36:44.997Z,75.49
2022-09-16T06:39:16.052Z,75.86
2022-09-16T06:41:43.698Z,75.50
2022-09-16T06:44:14.926Z,74.96
2022-09-16T06:46:41.695Z,75.03
2022-09-16T06:49:10.906Z,75.34
2022-09-16T06:51:37.586Z,75.10
2022-09-16T06:54:07.529Z,74.83
2022-09-16T06:56:37.836Z,75.33
2022-09-16T06:59:06.254Z,75.03
2022-09-16T07:01:34.425Z,74.11
2022-09-16T07:04:13.521Z,74.74
2022-09-16T07:09:30.356Z,74.74
2022-09-16T07:11:59.191Z,74.24
2022-09-16T07:14:29.909Z,73.36
2022-09-16T07:16:56.981Z,73.60
2022-09-16T07:19:28.017Z,74.03
2022-09-16T07:21:54.995Z,73.88
2022-09-16T07:24:21.729Z,72.83
2022-09-16T07:26:48.400Z,74.03
2022-09-16T07:29:18.353Z,74.43
2022-09-16T07:31:48.190Z,71.70
2022-09-16T07:34:14.875Z,71.77
2022-09-16T07:36:45.825Z,71.49
2022-09-16T07:39:14.967Z,71.35
2022-09-16T07:41:44.761Z,71.12
2022-09-16T07:44:15.880Z,71.09
2022-09-16T07:46:42.781Z,71.73
2022-09-16T07:49:13.981Z,71.96
2022-09-16T07:51:41.527Z,73.28
2022-09-16T07:54:12.491Z,70.74
2022-09-16T07:56:42.553Z,69.10
2022-09-16T07:59:18.913Z,70.98
2022-09-16T08:01:49.929Z,70.49
2022-09-16T08:04:20.137Z,70.03
2022-09-16T08:06:47.625Z,70.95
2022-09-16T08:12:05.279Z,70.31
2022-09-16T08:14:33.207Z,69.31
2022-09-16T08:17:05.040Z,70.61
2022-09-16T08:19:31.753Z,69.24
2022-09-16T08:21:58.362Z,69.44
2022-09-16T08:24:25.125Z,67.18
2022-09-16T08:26:52.017Z,67.64
2022-09-16T08:29:22.442Z,67.23
2022-09-16T08:31:52.121Z,68.49
2022-09-16T08:34:18.832Z,66.57
2022-09-16T08:36:46.385Z,66.90
2022-09-16T08:39:15.242Z,66.98
2022-09-16T08:42:32.825Z,67.57
2022-09-16T08:45:48.237Z,67.47
2022-09-16T08:48:32.063Z,65.40
2022-09-16T08:51:02.518Z,66.45
2022-09-16T08:53:59.536Z,65.18
2022-09-16T08:56:34.144Z,66.20
2022-09-16T08:59:07.057Z,65.10
2022-09-16T09:01:47.906Z,64.47
2022-09-16T09:04:15.752Z,62.69
2022-09-16T09:06:59.397Z,63.64
2022-09-16T09:09:38.734Z,64.28
2022-09-16T09:12:38.628Z,64.85
2022-09-16T09:15:30.765Z,63.11
2022-09-16T09:18:41.350Z,62.51
2022-09-16T09:21:54.421Z,63.04
2022-09-16T09:24:36.238Z,59.40
2022-09-16T09:27:37.035Z,59.07
2022-09-16T09:30:29.621Z,60.89
2022-09-16T09:33:45.589Z,58.23
2022-09-16T09:36:42.159Z,57.07
2022-09-16T09:39:33.178Z,54.55
2022-09-16T09:42:18.699Z,58.12
2022-09-16T09:44:58.476Z,56.02
2022-09-16T09:47:54.177Z,56.49
2022-09-16T09:50:29.668Z,55.30
2022-09-16T09:53:11.570Z,52.09
2022-09-16T09:55:44.537Z,53.75
2022-09-16T09:58:42.777Z,53.97
2022-09-16T10:01:11.470Z,54.15
2022-09-16T10:03:40.141Z,52.78
2022-09-16T10:06:07.651Z,55.28
2022-09-16T10:08:48.822Z,55.45
2022-09-16T10:11:26.968Z,55.31
2022-09-16T10:14:02.191Z,55.77
2022-09-16T10:16:37.878Z,56.03
2022-09-16T10:19:17.177Z,55.98
2022-09-16T10:21:51.051Z,54.82
2022-09-16T10:24:35.824Z,54.95
2022-09-16T10:27:28.396Z,54.91
2022-09-16T10:30:17.425Z,55.87
2022-09-16T10:32:56.398Z,57.61
2022-09-16T10:35:32.850Z,56.72
2022-09-16T10:38:21.049Z,56.15
2022-09-16T10:41:19.839Z,55.95
2022-09-16T10:43:58.935Z,58.11
2022-09-16T10:46:26.254Z,56.23
2022-09-16T10:49:00.658Z,56.97
2022-09-16T10:51:33.671Z,58.90
2022-09-16T10:54:05.218Z,58.08
2022-09-16T10:56:54.487Z,58.70
2022-09-16T10:59:21.355Z,60.29
2022-09-16T11:02:26.209Z,59.79
2022-09-16T11:05:58.176Z,61.17
2022-09-16T11:08:53.288Z,58.20
2022-09-16T11:11:44.572Z,58.26
2022-09-16T11:14:51.059Z,60.03
2022-09-16T11:17:41.207Z,58.91
2022-09-16T11:20:39.712Z,59.46
2022-09-16T11:23:48.651Z,59.50
2022-09-16T11:26:43.414Z,59.66
2022-09-16T11:29:40.165Z,60.57
2022-09-16T11:32:54.677Z,62.12
2022-09-16T11:36:08.852Z,61.36
2022-09-16T11:39:07.703Z,61.97
2022-09-16T11:41:59.494Z,62.19
2022-09-16T11:44:37.021Z,61.31
2022-09-16T11:47:45.532Z,60.08
2022-09-16T11:50:40.446Z,61.94
2022-09-16T11:53:33.816Z,61.55
2022-09-16T11:56:40.612Z,62.34
2022-09-16T11:59:29.225Z,62.49
2022-09-16T12:02:16.999Z,62.90
2022-09-16T12:05:23.651Z,62.78
2022-09-16T12:08:26.528Z,62.78
2022-09-16T12:11:33.303Z,63.51
2022-09-16T12:14:13.793Z,63.60
2022-09-16T12:16:54.709Z,62.96
2022-09-16T12:19:29.838Z,62.55
2022-09-16T12:22:18.579Z,62.36
2022-09-16T12:25:14.648Z,65.96
2022-09-16T12:27:52.412Z,63.61
2022-09-16T12:30:30.219Z,64.87
2022-09-16T12:33:17.508Z,64.25
2022-09-16T12:36:07.407Z,67.05
2022-09-16T12:38:34.893Z,66.65
2022-09-16T12:41:39.734Z,63.13
2022-09-16T12:44:47.216Z,64.92
2022-09-16T12:47:35.208Z,62.66
2022-09-16T12:50:39.735Z,60.24
2022-09-16T12:53:24.156Z,64.17
2022-09-16T12:56:08.190Z,65.85
2022-09-16T12:59:02.181Z,64.36
2022-09-16T13:01:41.731Z,62.97
2022-09-16T13:04:31.125Z,62.04
2022-09-16T13:07:00.012Z,63.82
2022-09-16T13:09:39.233Z,64.74
2022-09-16T13:12:40.775Z,64.88
2022-09-16T13:15:30.851Z,66.12
2022-09-16T13:18:14.311Z,65.98
2022-09-16T13:20:49.879Z,69.24
2022-09-16T13:23:27.071Z,62.16
2022-09-16T13:25:59.855Z,64.02
2022-09-16T13:28:32.987Z,62.59
2022-09-16T13:31:12.501Z,65.21
2022-09-16T13:33:45.242Z,61.75
2022-09-16T13:36:21.244Z,60.95
2022-09-16T13:38:55.461Z,61.75
2022-09-16T13:41:55.371Z,61.91
2022-09-16T13:44:39.124Z,57.67
2022-09-16T13:47:12.091Z,51.84
2022-09-16T13:49:53.357Z,49.50
2022-09-16T13:52:32.296Z,49.00
2022-09-16T13:55:11.407Z,47.04
2022-09-16T13:58:24.731Z,44.38
2022-09-16T14:01:22.680Z,43.41
2022-09-16T14:04:23.943Z,40.95
2022-09-16T14:07:08.694Z,40.33
2022-09-16T14:09:55.107Z,42.33
2022-09-16T14:12:39.121Z,44.31
2022-09-16T14:15:08.149Z,45.73
2022-09-16T14:17:51.586Z,48.86
2022-09-16T14:20:23.040Z,49.24
2022-09-16T14:23:20.545Z,49.51
2022-09-16T14:25:53.483Z,50.28
2022-09-16T14:28:28.389Z,45.81
2022-09-16T14:30:59.681Z,47.45
2022-09-16T14:33:33.946Z,47.87
2022-09-16T14:36:10.892Z,45.96
2022-09-16T14:38:47.167Z,47.61
2022-09-16T14:43:25.140Z,47.61
2022-09-16T14:45:59.931Z,50.90
2022-09-16T14:48:39.006Z,52.13
2022-09-16T14:53:38.521Z,51.12
2022-09-16T14:55:49.405Z,46.27
2022-09-16T14:57:51.218Z,45.96
2022-09-16T14:59:57.908Z,48.58
2022-09-16T15:02:19.318Z,45.46
2022-09-16T15:04:33.307Z,46.58
2022-09-16T15:06:48.607Z,45.98
2022-09-16T15:09:17.717Z,46.07
2022-09-16T15:12:46.621Z,45.69
2022-09-16T15:13:49.079Z,45.74
2022-09-16T15:16:12.688Z,46.33
2022-09-16T15:18:34.927Z,48.26
2022-09-16T15:20:42.083Z,47.82
2022-09-16T15:22:44.019Z,46.39
2022-09-16T15:24:49.965Z,50.00
2022-09-16T15:26:55.705Z,46.69
2022-09-16T15:29:04.505Z,45.20
2022-09-16T15:31:08.570Z,44.16
2022-09-16T15:33:33.778Z,44.19
2022-09-16T15:35:36.373Z,44.88
2022-09-16T15:37:38.322Z,46.61
2022-09-16T15:39:40.341Z,47.25
2022-09-16T15:41:41.946Z,47.97
2022-09-16T15:43:46.258Z,48.27
2022-09-16T15:46:01.991Z,49.58
2022-09-16T15:48:16.456Z,49.01
2022-09-16T15:50:22.948Z,49.96
2022-09-16T15:52:25.938Z,48.85
2022-09-16T15:54:38.949Z,49.74
2022-09-16T15:57:02.514Z,50.21
2022-09-16T15:59:24.038Z,51.50
2022-09-16T16:01:53.763Z,52.43
2022-09-16T16:04:01.976Z,57.72
2022-09-16T16:06:05.080Z,67.19
2022-09-16T16:08:10.244Z,100.00
2022-09-16T16:10:38.373Z,100.00
2022-09-16T16:12:39.837Z,100.00
2022-09-16T16:14:41.431Z,100.00
2022-09-16T16:17:08.905Z,100.00
2022-09-16T16:19:09.161Z,100.00
2022-09-16T16:21:21.918Z,100.00
2022-09-16T16:23:28.948Z,100.00
2022-09-16T16:25:36.288Z,100.00
2022-09-16T16:27:38.229Z,100.00
2022-09-16T16:29:39.900Z,100.00
2022-09-16T16:31:59.095Z,100.00
2022-09-16T16:34:00.741Z,100.00
2022-09-16T16:36:05.557Z,100.00
2022-09-16T16:38:16.164Z,100.00
2022-09-16T16:40:18.607Z,100.00
2022-09-16T16:42:23.159Z,70.50
2022-09-16T16:44:26.592Z,63.90
2022-09-16T16:46:29.434Z,64.09
2022-09-16T16:48:31.275Z,65.68
2022-09-16T16:50:32.813Z,68.73
2022-09-16T16:52:34.364Z,68.92
2022-09-16T16:54:49.016Z,71.23
2022-09-16T16:57:07.611Z,71.83
2022-09-16T16:59:09.722Z,71.14
2022-09-16T17:01:18.631Z,72.03
2022-09-16T17:03:22.633Z,73.40
2022-09-16T17:05:24.159Z,74.59
2022-09-16T17:07:27.314Z,73.02
2022-09-16T17:09:29.423Z,73.89
2022-09-16T17:11:31.579Z,72.83
2022-09-16T17:13:33.572Z,72.77
2022-09-16T17:15:35.168Z,71.98
2022-09-16T17:17:37.458Z,74.28
2022-09-16T17:19:39.047Z,73.89
2022-09-16T17:21:43.451Z,74.53
2022-09-16T17:24:00.633Z,74.06
2022-09-16T17:26:04.800Z,73.25
2022-09-16T17:28:07.157Z,74.61
2022-09-16T17:30:09.180Z,74.32
2022-09-16T17:32:11.020Z,77.75
2022-09-16T17:34:15.633Z,74.95
2022-09-16T17:36:20.761Z,77.57
2022-09-16T17:38:22.467Z,74.72
2022-09-16T17:40:24.162Z,75.29
2022-09-16T17:42:25.755Z,75.25
2022-09-16T17:44:27.427Z,74.93
2022-09-16T17:46:29.132Z,75.11
2022-09-16T17:48:31.051Z,75.00
2022-09-16T17:50:33.845Z,75.27
2022-09-16T17:52:35.670Z,75.36
2022-09-16T17:54:37.289Z,75.69
2022-09-16T17:56:39.556Z,75.85
2022-09-16T17:58:45.230Z,75.09
2022-09-16T18:00:47.348Z,74.92
2022-09-16T18:02:49.325Z,74.82
2022-09-16T18:04:54.250Z,74.65
2022-09-16T18:06:55.874Z,73.26
2022-09-16T18:09:01.034Z,74.29
2022-09-16T18:11:04.269Z,74.13
2022-09-16T18:13:06.238Z,73.86
2022-09-16T18:15:09.462Z,72.69
2022-09-16T18:17:11.562Z,73.21
2022-09-16T18:19:13.202Z,78.13
2022-09-16T18:21:17.704Z,73.64
2022-09-16T18:23:19.244Z,75.80
2022-09-16T18:25:20.778Z,74.88
2022-09-16T18:27:23.026Z,75.88
2022-09-16T18:29:25.004Z,78.92
2022-09-16T18:31:26.758Z,74.77
2022-09-16T18:33:28.741Z,75.32
2022-09-16T18:35:30.331Z,75.89
2022-09-16T18:37:31.912Z,79.08
2022-09-16T18:39:33.981Z,79.21
2022-09-16T18:41:39.011Z,79.60
2022-09-16T18:43:44.224Z,75.45
2022-09-16T18:45:45.855Z,79.00
2022-09-16T18:47:47.637Z,80.18
2022-09-16T18:49:49.225Z,80.28
2022-09-16T18:51:53.212Z,81.00
2022-09-16T18:54:00.689Z,80.63
2022-09-16T18:56:03.228Z,81.75
2022-09-16T18:58:05.180Z,81.57
2022-09-16T19:00:08.257Z,82.18
2022-09-16T19:02:13.360Z,80.23
2022-09-16T19:04:18.948Z,78.85
2022-09-16T19:06:25.234Z,77.92
2022-09-16T19:08:27.025Z,78.90
2022-09-16T19:10:28.677Z,79.60
2022-09-16T19:12:39.316Z,77.23
2022-09-16T19:14:44.675Z,80.41
2022-09-16T19:16:49.772Z,81.52
2022-09-16T19:18:54.299Z,79.29
2022-09-16T19:20:57.224Z,79.93
2022-09-16T19:23:00.403Z,82.34
2022-09-16T19:25:02.062Z,81.25
2022-09-16T19:27:04.068Z,81.16
2022-09-16T19:29:07.175Z,79.25
2022-09-16T19:31:13.358Z,78.73
2022-09-16T19:33:14.979Z,77.92
2022-09-16T19:35:19.070Z,78.00
2022-09-16T19:37:21.091Z,80.41
2022-09-16T19:39:23.925Z,77.98
2022-09-16T19:41:30.035Z,78.43
2022-09-16T19:43:32.079Z,77.77
2022-09-16T19:45:33.837Z,77.42
2022-09-16T19:47:36.436Z,77.64
2022-09-16T19:49:38.064Z,77.87
2022-09-16T19:51:39.696Z,78.59
2022-09-16T19:53:43.609Z,78.27
2022-09-16T19:55:45.594Z,78.61
2022-09-16T19:57:47.348Z,79.06
2022-09-16T19:59:49.006Z,78.90
2022-09-16T20:01:51.201Z,78.82
2022-09-16T20:03:54.825Z,79.16
2022-09-16T20:06:06.782Z,78.98
2022-09-16T20:08:08.331Z,79.00
2022-09-16T20:10:10.107Z,78.54
2022-09-16T20:12:11.785Z,78.65
2022-09-16T20:14:22.227Z,78.50
2022-09-16T20:16:32.075Z,78.03
2022-09-16T20:18:36.540Z,81.28
2022-09-16T20:20:38.145Z,80.64
2022-09-16T20:22:39.857Z,79.57
2022-09-16T20:24:41.990Z,79.66
2022-09-16T20:26:44.177Z,78.09
2022-09-16T20:28:51.844Z,78.06
2022-09-16T20:30:53.500Z,79.79
2022-09-16T20:32:56.227Z,76.94
2022-09-16T20:34:58.173Z,77.46
2022-09-16T20:36:59.852Z,80.87
2022-09-16T20:39:01.870Z,80.69
2022-09-16T20:41:09.233Z,80.39
2022-09-16T20:43:12.554Z,80.82
2022-09-16T20:45:14.208Z,81.67
2022-09-16T20:47:16.591Z,81.63
2022-09-16T20:49:20.528Z,79.88
2022-09-16T20:51:25.855Z,80.85
2022-09-16T20:53:27.633Z,81.12
2022-09-16T20:55:32.255Z,81.08
2022-09-16T20:57:36.355Z,81.38
2022-09-16T20:59:38.325Z,78.81
2022-09-16T21:01:41.670Z,81.18
2022-09-16T21:03:45.632Z,81.87
2022-09-16T21:05:47.258Z,79.72
2022-09-16T21:07:50.014Z,80.59
2022-09-16T21:09:51.725Z,80.70
2022-09-16T21:11:55.755Z,78.33
2022-09-16T21:14:01.681Z,80.77
2022-09-16T21:16:16.871Z,79.18
2022-09-16T21:18:18.660Z,79.95
2022-09-16T21:20:21.836Z,79.55
2022-09-16T21:22:24.502Z,79.39
2022-09-16T21:24:26.753Z,79.36
2022-09-16T21:26:32.585Z,79.54
2022-09-16T21:28:34.274Z,79.17
2022-09-16T21:30:35.917Z,78.86
2022-09-16T21:32:37.468Z,78.44
2022-09-16T21:34:39.086Z,79.02
2022-09-16T21:36:41.578Z,79.19
2022-09-16T21:38:43.371Z,79.48
2022-09-16T21:40:46.770Z,80.11
2022-09-16T21:42:48.479Z,79.83
2022-09-16T21:44:50.605Z,79.74
2022-09-16T21:46:53.064Z,79.72
2022-09-16T21:49:02.964Z,80.14
2022-09-16T21:51:08.935Z,79.93
2022-09-16T21:53:13.001Z,80.20
2022-09-16T21:55:14.731Z,80.50
2022-09-16T21:57:16.400Z,80.19
2022-09-16T21:59:20.862Z,80.86
2022-09-16T22:01:27.422Z,81.19
2022-09-16T22:03:29.023Z,81.39
2022-09-16T22:05:31.173Z,81.07
2022-09-16T22:07:33.596Z,81.84
2022-09-16T22:09:35.154Z,81.77
2022-09-16T22:11:40.749Z,82.01
2022-09-16T22:13:43.174Z,82.03
2022-09-16T22:15:51.988Z,82.53
2022-09-16T22:17:54.211Z,82.72
2022-09-16T22:19:55.838Z,82.48
2022-09-16T22:21:57.406Z,82.33
2022-09-16T22:24:01.021Z,82.56
2022-09-16T22:26:13.526Z,82.71
2022-09-16T22:28:15.594Z,82.84
2022-09-16T22:30:18.702Z,83.13
2022-09-16T22:32:20.297Z,83.24
2022-09-16T22:34:22.545Z,83.07
2022-09-16T22:36:27.114Z,83.38
2022-09-16T22:38:28.719Z,83.34
2022-09-16T22:40:31.165Z,83.55
2022-09-16T22:42:32.907Z,83.60
2022-09-16T22:44:34.874Z,83.42
2022-09-16T22:46:54.536Z,83.83
2022-09-16T22:48:58.906Z,83.95
2022-09-16T22:51:02.764Z,84.13
2022-09-16T22:53:04.454Z,83.82
2022-09-16T22:55:08.137Z,84.50
2022-09-16T22:57:10.051Z,84.33
2022-09-16T22:59:19.167Z,84.03
2022-09-16T23:01:26.286Z,83.82
2022-09-16T23:03:28.314Z,83.54
2022-09-16T23:05:30.018Z,83.72
2022-09-16T23:07:31.790Z,83.72
2022-09-16T23:09:33.422Z,83.78
2022-09-16T23:11:36.321Z,83.84
2022-09-16T23:13:41.876Z,83.91
2022-09-16T23:15:45.550Z,83.71
2022-09-16T23:17:47.419Z,83.96
2022-09-16T23:19:51.263Z,84.16
2022-09-16T23:21:52.829Z,83.98
2022-09-16T23:23:59.387Z,84.05
2022-09-16T23:26:09.149Z,84.20
2022-09-16T23:28:13.220Z,83.90
2022-09-16T23:30:15.376Z,84.37
2022-09-16T23:32:16.962Z,84.23
2022-09-16T23:34:22.051Z,83.73
2022-09-16T23:36:26.219Z,83.86
2022-09-16T23:38:29.089Z,83.51
2022-09-16T23:40:32.117Z,83.54
2022-09-16T23:42:36.264Z,83.52
2022-09-16T23:44:38.359Z,83.41
2022-09-16T23:46:40.156Z,83.56
2022-09-16T23:48:44.105Z,83.52
2022-09-16T23:50:46.742Z,83.53
2022-09-16T23:52:49.055Z,83.68
2022-09-16T23:54:51.208Z,83.79
2022-09-16T23:56:52.924Z,83.57
2022-09-16T23:58:59.318Z,83.76
